Latest Coastal Weather Observations for Bellambi

IDN60701

Issued at 4:15 pm EST Thursday 24 April 2014 (issued every 10 minutes, with the page automatically refreshed every 10 minutes)

About coastal observations | Map of coastal stations | Coastal observations for NSW | Marine services | Other Formats
Station Details ID: 068228 Name: BELLAMBI AWS Lat: -34.37 Lon: 150.93 Height: 10.0 m
Data from the previous 72 hours. | See also: Recent months at Bellambi
Date/Time
EST
Temp

°C
Wind Pressure Rain
since 9am
mm
Weather Cloud Vis
km
Sea
Height
m
Swell
Dir
 
Speed
knots
Gust
knots
hPa Trend Height
m
Period
s
Dir
24/04:00pm 23.7 SE 11 13 - - 0.0 - - - - - - -
24/03:30pm 26.5 S 8 15 - - 0.0 - - - - - - -
24/03:00pm 28.2 WSW 5 10 - - 0.0 - - - - - - -
24/02:30pm 25.7 N 8 16 - - 0.0 - - - - - - -
24/02:00pm 26.4 N 6 10 - - 0.0 - - - - - - -
24/01:30pm 25.1 ESE 5 7 - - 0.0 - - - - - - -
24/01:00pm 26.7 ENE 6 9 - - 0.0 - - - - - - -
24/12:30pm 26.8 N 3 8 - - 0.0 - - - - - - -
24/12:00pm 25.8 WNW 8 11 - - 0.0 - - - - - - -
24/11:30am 25.0 WNW 11 17 - - 0.0 - - - - - - -
24/11:00am 23.8 WNW 16 21 - - 0.0 - - - - - - -
24/10:30am 22.7 WNW 15 20 - - 0.0 - - - - - - -
24/10:00am 22.4 NW 17 24 - - 0.0 - - - - - - -
24/09:30am 22.5 WNW 17 22 - - 0.0 - - - - - - -
24/09:00am 22.5 NW 15 20 - - 0.2 - - - - - - -
24/08:30am 22.3 NW 15 18 - - 0.2 - - - - - - -
24/08:00am 21.6 NW 15 19 - - 0.2 - - - - - - -
24/07:30am 20.4 WNW 9 14 - - 0.2 - - - - - - -
24/07:00am 19.6 W 2 8 - - 0.2 - - - - - - -
24/06:30am 19.3 N 6 8 - - 0.2 - - - - - - -
24/06:00am 19.3 N 11 15 - - 0.2 - - - - - - -
24/05:30am 19.2 NNW 12 15 - - 0.2 - - - - - - -
24/05:00am 19.8 N 12 15 - - 0.2 - - - - - - -
24/04:30am 19.7 NW 5 7 - - 0.2 - - - - - - -
24/04:00am 19.0 NW 1 4 - - 0.2 - - - - - - -
24/03:30am 19.5 NNW 8 12 - - 0.2 - - - - - - -
24/03:00am 18.8 NW 9 11 - - 0.2 - - - - - - -
24/02:30am 18.8 WNW 4 7 - - 0.2 - - - - - - -
24/02:00am 18.8 CALM 0 2 - - 0.2 - - - - - - -
24/01:30am 19.1 NW 4 7 - - 0.2 - - - - - - -
24/01:00am 19.7 CALM 0 3 - - 0.2 - - - - - - -
24/12:30am 19.6 CALM 0 3 - - 0.2 - - - - - - -
24/12:00am 19.1 SW 3 5 - - 0.2 - - - - - - -
 
Date/Time
EST
Temp

°C
Wind Pressure Rain
since 9am
mm
Weather Cloud Vis
km
Sea
Height
m
Swell
Dir
 
Speed
knots
Gust
knots
hPa Trend Height
m
Period
s
Dir
23/11:30pm 19.7 CALM 0 3 - - 0.2 - - - - - - -
23/11:00pm 20.0 WNW 2 5 - - 0.2 - - - - - - -
23/10:30pm 19.3 WNW 3 5 - - 0.2 - - - - - - -
23/10:00pm 19.2 NW 4 5 - - 0.2 - - - - - - -
23/09:30pm 19.9 NW 7 9 - - 0.2 - - - - - - -
23/09:00pm 21.6 N 10 12 - - 0.2 - - - - - - -
23/08:30pm 19.7 N 5 7 - - 0.2 - - - - - - -
23/08:00pm 18.7 NNW 4 6 - - 0.2 - - - - - - -
23/07:30pm 18.7 NW 4 5 - - 0.2 - - - - - - -
23/07:00pm 19.2 NW 2 4 - - 0.2 - - - - - - -
23/06:30pm 19.5 WNW 4 5 - - 0.2 - - - - - - -
23/06:00pm 21.0 N 4 7 - - 0.2 - - - - - - -
23/05:30pm 21.0 N 6 7 - - 0.2 - - - - - - -
23/05:00pm 21.4 N 9 12 - - 0.0 - - - - - - -
23/04:30pm 21.8 NNE 9 11 - - 0.0 - - - - - - -
23/04:00pm 21.4 NNE 7 8 - - 0.0 - - - - - - -
23/03:30pm 22.7 NNE 6 8 - - 0.0 - - - - - - -
23/03:00pm 23.1 NNE 6 7 - - 0.0 - - - - - - -
23/02:30pm 23.6 NNE 6 8 - - 0.0 - - - - - - -
23/02:00pm 23.7 NNE 6 8 - - 0.0 - - - - - - -
23/01:30pm 23.2 NE 7 9 - - 0.0 - - - - - - -
23/01:00pm 22.7 NE 5 7 - - 0.0 - - - - - - -
23/12:30pm 23.0 E 6 7 - - 0.0 - - - - - - -
23/12:00pm 23.2 ESE 5 6 - - 0.0 - - - - - - -
23/11:30am 23.6 ENE 5 6 - - 0.0 - - - - - - -
23/11:00am 22.8 E 4 5 - - 0.0 - - - - - - -
23/10:30am 22.2 ESE 3 4 - - 0.0 - - - - - - -
23/10:00am 22.7 N 1 3 - - 0.0 - - - - - - -
23/09:30am 21.6 NNW 3 4 - - 0.0 - - - - - - -
23/09:00am 20.4 WNW 1 4 - - 0.0 - - - - - - -
23/08:30am 19.3 NW 6 7 - - 0.0 - - - - - - -
23/08:00am 18.3 NNW 4 5 - - 0.0 - - - - - - -
23/07:30am 17.4 WNW 4 5 - - 0.0 - - - - - - -
23/07:00am 15.8 NW 4 5 - - 0.0 - - - - - - -
23/06:30am 15.4 WNW 3 5 - - 0.0 - - - - - - -
23/06:00am 15.8 WNW 5 6 - - 0.0 - - - - - - -
23/05:30am 15.8 WNW 6 7 - - 0.0 - - - - - - -
23/05:00am 15.8 WNW 6 7 - - 0.0 - - - - - - -
23/04:30am 16.1 WNW 5 6 - - 0.0 - - - - - - -
23/04:00am 16.1 NW 6 7 - - 0.0 - - - - - - -
23/03:30am 16.1 WNW 6 7 - - 0.0 - - - - - - -
23/03:00am 16.4 NW 5 7 - - 0.0 - - - - - - -
23/02:30am 16.5 NNW 4 6 - - 0.0 - - - - - - -
23/02:00am 17.2 WNW 4 5 - - 0.0 - - - - - - -
23/01:30am 17.6 W 4 6 - - 0.0 - - - - - - -
23/01:00am 17.7 W 6 7 - - 0.0 - - - - - - -
23/12:30am 17.9 W 6 7 - - 0.0 - - - - - - -
23/12:00am 17.9 NW 5 6 - - 0.0 - - - - - - -
 
Date/Time
EST
Temp

°C
Wind Pressure Rain
since 9am
mm
Weather Cloud Vis
km
Sea
Height
m
Swell
Dir
 
Speed
knots
Gust
knots
hPa Trend Height
m
Period
s
Dir
22/11:30pm 18.2 NW 5 8 - - 0.0 - - - - - - -
22/11:00pm 19.0 WNW 6 11 - - 0.0 - - - - - - -
22/10:30pm 19.4 W 9 14 - - 0.0 - - - - - - -
22/10:00pm 19.2 SW 5 9 - - 0.0 - - - - - - -
22/09:30pm 19.4 CALM 0 7 - - 0.0 - - - - - - -
22/09:00pm 20.6 SSW 12 20 - - 0.0 - - - - - - -
22/08:30pm 19.7 SW 6 10 - - 0.0 - - - - - - -
22/08:00pm 19.7 SSW 2 7 - - 0.0 - - - - - - -
22/07:30pm 20.1 SW 6 10 - - 0.0 - - - - - - -
22/07:00pm 20.9 NW 5 10 - - 0.0 - - - - - - -
22/06:30pm 20.8 W 4 7 - - 0.0 - - - - - - -
22/06:00pm 20.6 WNW 4 7 - - 0.0 - - - - - - -
22/05:30pm 22.8 NNW 8 10 - - 0.0 - - - - - - -
22/05:00pm 21.7 N 7 8 - - 0.0 - - - - - - -
22/04:30pm 22.1 N 6 7 - - 0.0 - - - - - - -
22/04:00pm 22.2 NNE 4 5 - - 0.0 - - - - - - -
22/03:30pm 22.6 NNE 6 7 - - 0.0 - - - - - - -
22/03:00pm 22.9 NNE 5 6 - - 0.0 - - - - - - -
22/02:30pm 22.6 NE 6 8 - - 0.0 - - - - - - -
22/02:00pm 23.5 NE 7 8 - - 0.0 - - - - - - -
22/01:30pm 23.0 NE 7 9 - - 0.0 - - - - - - -
22/01:00pm 23.0 ENE 7 9 - - 0.0 - - - - - - -
22/12:30pm 23.3 E 8 10 - - 0.0 - - - - - - -
22/12:00pm 24.2 NW 8 12 - - 0.0 - - - - - - -
22/11:30am 23.9 NW 8 11 - - 0.0 - - - - - - -
22/11:00am 22.2 NW 9 13 - - 0.0 - - - - - - -
22/10:30am 21.8 NW 11 15 - - 0.0 - - - - - - -
22/10:00am 21.1 NW 11 17 - - 0.0 - - - - - - -
22/09:30am 20.0 NW 13 18 - - 0.0 - - - - - - -
22/09:00am 19.3 NW 11 16 - - 0.0 - - - - - - -
22/08:30am 17.9 NW 13 18 - - 0.0 - - - - - - -
22/08:00am 17.3 NW 11 15 - - 0.0 - - - - - - -
22/07:30am 16.9 NW 11 14 - - 0.0 - - - - - - -
22/07:00am 16.6 NW 10 12 - - 0.0 - - - - - - -
22/06:30am 16.2 NW 10 15 - - 0.0 - - - - - - -
22/06:00am 16.0 NW 7 9 - - 0.0 - - - - - - -
22/05:30am 16.4 NW 8 11 - - 0.0 - - - - - - -
22/05:00am 15.9 NW 7 11 - - 0.0 - - - - - - -
22/04:30am 16.0 NW 6 8 - - 0.0 - - - - - - -
22/04:00am 16.2 NW 5 7 - - 0.0 - - - - - - -
22/03:30am 16.5 NW 7 9 - - 0.0 - - - - - - -
22/03:00am 16.7 NW 8 10 - - 0.0 - - - - - - -
22/02:30am 16.8 NW 7 9 - - 0.0 - - - - - - -
22/02:00am 16.7 WNW 7 9 - - 0.0 - - - - - - -
22/01:30am 17.2 NW 6 8 - - 0.0 - - - - - - -
22/01:00am 16.9 NW 7 11 - - 0.0 - - - - - - -
22/12:30am 16.9 NW 8 10 - - 0.0 - - - - - - -
22/12:00am 16.6 WNW 7 9 - - 0.0 - - - - - - -
 
Date/Time
EST
Temp

°C
Wind Pressure Rain
since 9am
mm
Weather Cloud Vis
km
Sea
Height
m
Swell
Dir
 
Speed
knots
Gust
knots
hPa Trend Height
m
Period
s
Dir
21/11:30pm 16.9 NW 7 9 - - 0.0 - - - - - - -
21/11:00pm 17.0 WNW 6 8 - - 0.0 - - - - - - -
21/10:30pm 17.6 WNW 7 8 - - 0.0 - - - - - - -
21/10:00pm 16.8 WNW 7 9 - - 0.0 - - - - - - -
21/09:30pm 16.3 WNW 5 6 - - 0.0 - - - - - - -
21/09:00pm 16.3 WNW 5 6 - - 0.0 - - - - - - -
21/08:30pm 17.0 WNW 5 5 - - 0.0 - - - - - - -
21/08:00pm 16.9 WNW 4 5 - - 0.0 - - - - - - -
21/07:30pm 17.2 WNW 4 5 - - 0.0 - - - - - - -
21/07:00pm 17.4 W 5 5 - - 0.0 - - - - - - -
21/06:30pm 18.0 WNW 4 5 - - 0.0 - - - - - - -
21/06:00pm 18.5 NW 4 5 - - 0.0 - - - - - - -
21/05:30pm 19.5 ENE 1 4 - - 0.0 - - - - - - -
21/05:00pm 20.1 ENE 1 4 - - 0.0 - - - - - - -
21/04:30pm 20.3 NE 3 4 - - 0.0 - - - - - - -

Other Formats:

Comma delimited format used in spreadsheet applications
http://www.bom.gov.au/fwo/IDN60701/IDN60701.94749.axf

JavaScript Object Notation format (JSON) in row-major order
http://www.bom.gov.au/fwo/IDN60701/IDN60701.94749.json